This is the latest recevied weather packets stored in our database for station/object N6GPM. If no packets are shown the sender has not sent any weather packets the latest 10 day(s).
| Time | Temp. | Humidity | Pressure | Rain* | Wind** | Luminosity | Snow |
|---|---|---|---|---|---|---|---|
| 1777563261 | 15° C | 69% | 1016.7 hPa | 0 mm | - | 361 W/m² | - |
| 1777562959 | 14.44° C | 70% | 1016.5 hPa | 0 mm | - | 344 W/m² | - |
| 1777562654 | 13.89° C | 71% | 1016.6 hPa | 0 mm | - | 302 W/m² | - |
| 1777562348 | 14.44° C | 70% | 1016.8 hPa | 0 mm | - | 288 W/m² | - |
| 1777561132 | 13.89° C | 71% | 1016.8 hPa | 0 mm | - | 196 W/m² | - |
| 1777560223 | 12.78° C | 74% | 1016.7 hPa | 0 mm | - | 156 W/m² | - |
| 1777556278 | 10.56° C | 87% | 1016.8 hPa | 0 mm | - | 28 W/m² | - |
| 1777555974 | 10.56° C | 87% | 1016.8 hPa | 0 mm | - | 23 W/m² | - |
| 1777554760 | 10° C | 85% | 1016.5 hPa | 0 mm | - | 7 W/m² | - |
| 1777552939 | 10° C | 84% | 1016.5 hPa | 0 mm | - | 0 W/m² | - |
| 1777552331 | 10° C | 84% | 1016.3 hPa | 0 mm | - | 0 W/m² | - |
| 1777552027 | 10.56° C | 83% | 1016.4 hPa | 0 mm | - | 0 W/m² | - |
| 1777549600 | 10.56° C | 79% | 1016.5 hPa | 0 mm | - | 0 W/m² | - |
| 1777548994 | 11.11° C | 78% | 1016.8 hPa | 0 mm | - | 0 W/m² | - |
| 1777548690 | 11.11° C | 78% | 1016.6 hPa | 0 mm | - | 0 W/m² | - |
| 1777548084 | 11.11° C | 78% | 1016.9 hPa | 0 mm | - | 0 W/m² | - |
| 1777547476 | 11.11° C | 77% | 1016.7 hPa | 0 mm | - | 0 W/m² | - |
| 1777547174 | 11.11° C | 77% | 1016.9 hPa | 0 mm | - | 0 W/m² | - |
| 1777546568 | 11.11° C | 77% | 1016.6 hPa | 0 mm | - | 0 W/m² | - |
| 1777546264 | 11.11° C | 77% | 1016.8 hPa | 0 mm | - | 0 W/m² | - |
| 1777545657 | 11.67° C | 76% | 1016.9 hPa | 0 mm | - | 0 W/m² | - |
| 1777545355 | 11.67° C | 77% | 1017.2 hPa | 0 mm | - | 0 W/m² | - |
| 1777545052 | 11.67° C | 78% | 1017.3 hPa | 0 mm | - | 0 W/m² | - |
| 1777544749 | 11.67° C | 77% | 1017.3 hPa | 0 mm | - | 0 W/m² | - |
| 1777544444 | 11.67° C | 77% | 1017.3 hPa | 0 mm | - | 0 W/m² | - |
* Rain latest hour (hover to see other rain measurements)
** Current wind speed in m/s (hover to see current wind gust speed)